Time;durP1;ratioP1;P1;durP2;ratioP2;P2;SDS_P1;SDS_P2;PMS_P1;PMS_P2;Temp;Humidity;BMP_temperature;BMP_pressure;BME280_temperature;BME280_humidity;BME280_pressure;Samples;Min_cycle;Max_cycle;Signal;HPM_P1;HPM_P2
2022/12/30 00:01:14;;;;;;;;;;;;;;;-144.47;83.44;52907.72;4988293;28;19971;-66
2022/12/30 00:03:40;;;;;;;;;;;;;;;-144.47;83.46;52913.69;4988842;28;19914;-71
2022/12/30 00:06:07;;;;;;;;;;;;;;;-144.47;83.09;52941.50;4991370;28;21220;-69
2022/12/30 00:08:48;;;;;;;;;;;;;;;-144.47;83.07;52917.66;4999006;28;19917;-71
2022/12/30 00:11:18;;;;;;;;;;;;;;;-144.47;82.67;52925.59;4989888;28;19918;-69
2022/12/30 00:33:06;;;;;;;;;;;;;;;-144.47;75.13;52923.63;4988820;28;20023;-72
2022/12/30 00:35:32;;;;;;;;;;;;;;;-144.47;74.77;52929.59;4986604;28;19925;-69
2022/12/30 00:37:57;;;;;;;;;;;;;;;-144.47;74.60;52915.69;4988154;28;20578;-70
2022/12/30 00:40:22;;;;;;;;;;;;;;;-144.47;74.74;52925.59;5000206;28;20464;-67
2022/12/30 00:45:32;;;;;;;;;;;;;;;-144.47;74.40;52937.53;4987906;28;19920;-71
2022/12/30 00:47:57;;;;;;;;;;;;;;;-144.47;74.02;52951.44;4989223;28;19913;-68
2022/12/30 00:58:34;;;;;;;;;;;;;;;-144.47;75.60;52935.53;4987199;28;19964;-68
2022/12/30 01:00:59;;;;;;;;;;;;;;;-144.47;76.03;52927.59;4989304;28;19914;-73
2022/12/30 01:03:24;;;;;;;;;;;;;;;-144.47;76.67;52923.63;4990103;28;19925;-68
2022/12/30 01:05:50;;;;;;;;;;;;;;;-144.47;77.36;52925.59;4988079;28;19910;-73
2022/12/30 01:08:15;;;;;;;;;;;;;;;-144.47;77.87;52915.69;4995793;28;20063;-72
2022/12/30 01:10:40;;;;;;;;;;;;;;;-144.47;78.29;52917.66;4988845;28;19910;-70
2022/12/30 01:13:07;;;;;;;;;;;;;;;-144.47;78.57;52919.66;4990958;28;19984;-73
2022/12/30 01:15:32;;;;;;;;;;;;;;;-144.47;78.57;52909.72;4979049;28;19933;-72
2022/12/30 01:17:57;;;;;;;;;;;;;;;-144.47;78.59;52915.69;4993943;28;20634;-74
2022/12/30 01:20:23;;;;;;;;;;;;;;;-144.47;78.49;52931.56;4992263;28;19989;-70
2022/12/30 01:22:48;;;;;;;;;;;;;;;-144.47;78.98;52929.59;4993933;28;19914;-72
2022/12/30 01:25:13;;;;;;;;;;;;;;;-144.47;78.92;52929.59;4991396;28;20043;-69
2022/12/30 01:27:38;;;;;;;;;;;;;;;-144.47;78.91;52925.59;4990831;28;20031;-71
2022/12/30 01:30:04;;;;;;;;;;;;;;;-144.47;79.03;52947.47;4992831;28;19932;-70
2022/12/30 01:32:30;;;;;;;;;;;;;;;-144.47;78.89;52943.47;4991980;28;20328;-66
2022/12/30 01:34:56;;;;;;;;;;;;;;;-144.47;79.00;52921.63;4991992;28;19910;-70
2022/12/30 01:37:21;;;;;;;;;;;;;;;-144.47;78.29;52939.50;4991318;28;19944;-67
2022/12/30 01:39:47;;;;;;;;;;;;;;;-144.47;78.02;52939.50;4992380;28;19931;-70
2022/12/30 01:42:26;;;;;;;;;;;;;;;-144.47;78.34;52935.53;4991380;28;19949;-70
2022/12/30 01:44:53;;;;;;;;;;;;;;;-144.47;78.05;52925.59;4992108;28;19960;-67
2022/12/30 01:47:37;;;;;;;;;;;;;;;-144.47;78.04;52937.53;4988045;28;19914;-70
2022/12/30 01:50:05;;;;;;;;;;;;;;;-144.47;77.61;52931.56;5005469;28;19913;-69
2022/12/30 01:52:33;;;;;;;;;;;;;;;-144.47;77.60;52939.50;4991380;28;20008;-69
2022/12/30 01:55:02;;;;;;;;;;;;;;;-144.47;77.08;52939.50;4991981;28;19917;-70
2022/12/30 01:57:28;;;;;;;;;;;;;;;-144.47;76.55;52939.50;4990265;28;19976;-68
2022/12/30 01:59:53;;;;;;;;;;;;;;;-144.47;76.28;52937.53;4992000;28;19915;-69
2022/12/30 02:02:19;;;;;;;;;;;;;;;-144.47;76.00;52917.66;4991578;28;19924;-71
2022/12/30 02:04:44;;;;;;;;;;;;;;;-144.47;76.21;52933.56;4999407;28;19949;-68
2022/12/30 02:07:30;;;;;;;;;;;;;;;-144.47;75.91;52931.56;4992075;28;19910;-70
2022/12/30 02:09:56;;;;;;;;;;;;;;;-144.47;76.20;52919.66;4995819;28;20288;-70
2022/12/30 02:12:21;;;;;;;;;;;;;;;-144.47;76.40;52923.63;4991102;28;20004;-70
2022/12/30 02:14:47;;;;;;;;;;;;;;;-144.47;75.94;52933.56;4991556;28;19909;-67
2022/12/30 02:17:18;;;;;;;;;;;;;;;-144.47;75.96;52919.66;4988196;28;19917;-71
2022/12/30 02:20:19;;;;;;;;;;;;;;;-144.47;75.48;52927.59;4987828;28;19925;-72
2022/12/30 02:23:07;;;;;;;;;;;;;;;-144.47;75.25;52935.53;4894507;29;19911;-72
2022/12/30 02:25:41;;;;;;;;;;;;;;;-144.47;75.29;52917.66;4985859;28;19946;-72
2022/12/30 02:28:06;;;;;;;;;;;;;;;-144.47;75.14;52933.56;4988457;28;19937;-70
2022/12/30 02:30:32;;;;;;;;;;;;;;;-144.47;75.15;52951.44;4991577;28;20598;-71
2022/12/30 02:33:23;;;;;;;;;;;;;;;-144.47;75.63;52917.66;4991199;28;19988;-70
2022/12/30 02:35:49;;;;;;;;;;;;;;;-144.47;75.88;52943.47;4988818;28;19920;-69
2022/12/30 02:38:29;;;;;;;;;;;;;;;-144.47;75.88;52919.66;4990094;28;19910;-71
2022/12/30 02:46:50;;;;;;;;;;;;;;;-144.47;75.81;52919.66;4986997;28;19917;-71
2022/12/30 02:49:17;;;;;;;;;;;;;;;-144.47;75.97;52935.53;4999001;28;19925;-72
2022/12/30 02:54:27;;;;;;;;;;;;;;;-144.47;75.64;52917.66;4991429;28;20390;-69
2022/12/30 02:56:52;;;;;;;;;;;;;;;-144.47;75.56;52927.59;4989814;28;20012;-66
2022/12/30 03:05:28;;;;;;;;;;;;;;;-144.47;75.86;52907.72;4990217;28;19921;-69
2022/12/30 03:08:04;;;;;;;;;;;;;;;-144.47;76.08;52903.75;4996547;28;20214;-68
2022/12/30 03:13:55;;;;;;;;;;;;;;;-144.47;75.34;52909.72;4989933;28;20447;-71
2022/12/30 03:16:23;;;;;;;;;;;;;;;-144.47;75.13;52915.69;4989433;28;19939;-71
2022/12/30 03:18:49;;;;;;;;;;;;;;;-144.47;75.16;52935.53;4971996;28;20016;-71
2022/12/30 03:21:16;;;;;;;;;;;;;;;-144.47;75.36;52919.66;4973935;28;19920;-68
2022/12/30 03:27:03;;;;;;;;;;;;;;;-144.47;75.10;52937.53;4989826;28;19919;-68
2022/12/30 03:29:23;;;;;;;;;;;;;;;-144.47;75.48;52905.75;4986907;28;20410;-68
2022/12/30 03:31:49;;;;;;;;;;;;;;;-144.47;75.46;52927.59;4990731;28;19917;-69
2022/12/30 03:34:15;;;;;;;;;;;;;;;-144.47;75.66;52903.75;4988963;28;19949;-71
2022/12/30 03:36:45;;;;;;;;;;;;;;;-144.47;75.82;52951.44;4988140;28;19956;-69
2022/12/30 03:39:17;;;;;;;;;;;;;;;-144.47;75.98;52941.50;4985323;28;19921;-68
2022/12/30 03:41:45;;;;;;;;;;;;;;;-144.47;76.08;52939.50;4989673;28;19917;-69
2022/12/30 03:44:11;;;;;;;;;;;;;;;-144.47;76.58;52947.47;4989542;28;19920;-67
2022/12/30 03:46:39;;;;;;;;;;;;;;;-144.47;76.91;52949.44;4986535;28;19914;-72
2022/12/30 03:49:05;;;;;;;;;;;;;;;-144.47;76.97;52919.66;4997520;28;20402;-69
2022/12/30 03:51:30;;;;;;;;;;;;;;;-144.47;76.90;52939.50;4994816;28;19910;-68
2022/12/30 03:53:55;;;;;;;;;;;;;;;-144.47;76.84;52947.47;4988989;28;19913;-70
2022/12/30 03:56:20;;;;;;;;;;;;;;;-144.47;76.97;52973.28;4989871;28;20048;-67
2022/12/30 03:58:46;;;;;;;;;;;;;;;-144.47;77.29;52933.56;4988749;28;19918;-68
2022/12/30 04:01:11;;;;;;;;;;;;;;;-144.47;77.27;52931.56;4990168;28;19996;-68
2022/12/30 04:03:36;;;;;;;;;;;;;;;-144.47;76.91;52945.47;5021257;22;19921;-69
2022/12/30 04:06:01;;;;;;;;;;;;;;;-144.47;76.65;52931.56;5021920;28;19936;-67
2022/12/30 04:08:27;;;;;;;;;;;;;;;-144.47;75.74;52921.63;5034489;28;19901;-70
2022/12/30 04:10:52;;;;;;;;;;;;;;;-144.47;75.12;52919.66;5036483;28;19917;-70
2022/12/30 04:13:17;;;;;;;;;;;;;;;-144.47;74.50;52931.56;5032940;28;19925;-69
2022/12/30 04:15:49;;;;;;;;;;;;;;;-144.47;74.22;52937.53;5025929;28;20338;-65
2022/12/30 04:18:15;;;;;;;;;;;;;;;-144.47;73.90;52943.47;5009297;28;20402;-68
2022/12/30 04:20:40;;;;;;;;;;;;;;;-144.47;74.14;52961.34;4997199;28;19917;-66
2022/12/30 04:23:06;;;;;;;;;;;;;;;-144.47;73.68;52933.56;5009243;28;19960;-68
2022/12/30 04:25:31;;;;;;;;;;;;;;;-144.47;73.57;52955.41;5010742;28;19910;-65
2022/12/30 04:27:56;;;;;;;;;;;;;;;-144.47;73.46;52931.56;5008970;28;19917;-68
2022/12/30 04:30:21;;;;;;;;;;;;;;;-144.47;73.12;52911.69;5010640;28;19910;-66
2022/12/30 04:32:47;;;;;;;;;;;;;;;-144.47;72.99;52939.50;5010144;28;20367;-69
2022/12/30 04:35:12;;;;;;;;;;;;;;;-144.47;73.26;52941.50;5010224;28;19964;-69
2022/12/30 04:37:37;;;;;;;;;;;;;;;-144.47;73.62;52957.38;5007894;28;19909;-67
2022/12/30 04:40:03;;;;;;;;;;;;;;;-144.47;73.87;52945.47;5010482;28;19931;-68
2022/12/30 04:42:28;;;;;;;;;;;;;;;-144.47;75.16;52943.47;4992041;28;20276;-68
2022/12/30 04:44:53;;;;;;;;;;;;;;;-144.47;75.82;52929.59;5010685;28;19909;-68
2022/12/30 04:47:19;;;;;;;;;;;;;;;-144.47;77.00;52965.34;5004747;28;20268;-68
2022/12/30 04:49:44;;;;;;;;;;;;;;;-144.47;77.84;52949.44;5009346;28;19944;-67
2022/12/30 04:52:09;;;;;;;;;;;;;;;-144.47;79.19;52973.28;5009606;28;19988;-66
2022/12/30 04:54:35;;;;;;;;;;;;;;;-144.47;80.32;52963.34;5009816;28;19913;-67
2022/12/30 04:57:00;;;;;;;;;;;;;;;-144.47;80.93;52979.22;5009133;28;20002;-66
2022/12/30 04:59:25;;;;;;;;;;;;;;;-144.47;81.38;52975.25;5010480;28;19955;-68
2022/12/30 05:01:50;;;;;;;;;;;;;;;-144.47;82.05;52961.34;4992853;28;20017;-67
2022/12/30 05:04:16;;;;;;;;;;;;;;;-144.47;82.24;52963.34;5010056;28;20343;-69
2022/12/30 05:06:41;;;;;;;;;;;;;;;-144.47;82.57;53003.06;5009796;28;19920;-68
2022/12/30 05:09:06;;;;;;;;;;;;;;;-144.47;82.52;52979.22;5010188;28;19913;-68
2022/12/30 05:11:31;;;;;;;;;;;;;;;-144.47;82.10;53003.06;5010726;28;19966;-69
2022/12/30 05:13:57;;;;;;;;;;;;;;;-144.47;81.26;52959.38;5010023;28;19910;-66
2022/12/30 05:16:22;;;;;;;;;;;;;;;-144.47;80.66;52979.22;5010307;28;20063;-66
2022/12/30 05:18:47;;;;;;;;;;;;;;;-144.47;80.20;52981.22;5008308;28;19948;-67
2022/12/30 05:21:12;;;;;;;;;;;;;;;-144.47;80.23;52959.38;4995514;28;19940;-67
2022/12/30 05:26:21;;;;;;;;;;;;;;;-144.47;80.03;52971.28;4996693;28;19916;-68
2022/12/30 05:28:48;;;;;;;;;;;;;;;-144.47;80.03;52965.34;5012553;28;20359;-68
2022/12/30 05:31:14;;;;;;;;;;;;;;;-144.47;80.25;52931.56;5013227;28;19916;-69
2022/12/30 05:33:39;;;;;;;;;;;;;;;-144.47;80.34;52925.59;5012413;28;19913;-68
2022/12/30 05:36:05;;;;;;;;;;;;;;;-144.47;80.41;52933.56;5012627;28;19965;-68
2022/12/30 05:38:30;;;;;;;;;;;;;;;-144.47;80.28;52967.31;5008979;28;20307;-68
2022/12/30 05:40:56;;;;;;;;;;;;;;;-144.47;80.31;52967.31;5010375;28;20305;-67
2022/12/30 05:43:21;;;;;;;;;;;;;;;-144.47;80.78;52985.19;4995982;28;19914;-68
2022/12/30 05:45:46;;;;;;;;;;;;;;;-144.47;81.69;52963.34;5010659;28;19913;-69
2022/12/30 05:48:11;;;;;;;;;;;;;;;-144.47;81.63;52953.41;4998174;28;20317;-67
2022/12/30 05:50:37;;;;;;;;;;;;;;;-144.47;82.21;52987.19;5005873;28;20359;-67
2022/12/30 05:53:02;;;;;;;;;;;;;;;-144.47;82.47;52977.25;4991805;28;19909;-68
2022/12/30 05:55:27;;;;;;;;;;;;;;;-144.47;83.05;52959.38;4992507;28;19909;-66
2022/12/30 05:57:53;;;;;;;;;;;;;;;-144.47;83.71;52995.13;5007846;28;19936;-67
2022/12/30 06:00:18;;;;;;;;;;;;;;;-144.47;84.40;52993.13;5012315;28;19910;-69
2022/12/30 06:02:43;;;;;;;;;;;;;;;-144.47;84.11;52955.41;5013154;28;19963;-66
2022/12/30 06:05:09;;;;;;;;;;;;;;;-144.47;84.53;52941.50;5013719;28;19909;-65
2022/12/30 06:07:34;;;;;;;;;;;;;;;-144.47;84.48;52967.31;5012123;28;19920;-69
2022/12/30 06:09:59;;;;;;;;;;;;;;;-144.47;84.37;52967.31;5013599;28;20360;-67
2022/12/30 06:12:24;;;;;;;;;;;;;;;-144.47;84.21;52963.34;5012821;28;20433;-68
2022/12/30 06:14:50;;;;;;;;;;;;;;;-144.47;83.98;52991.16;5014406;28;19932;-68
2022/12/30 06:17:15;;;;;;;;;;;;;;;-144.47;84.05;52999.09;5014043;28;19913;-69
2022/12/30 06:19:40;;;;;;;;;;;;;;;-144.47;84.08;52981.22;5012212;28;19917;-68
2022/12/30 06:22:05;;;;;;;;;;;;;;;-144.47;84.29;52971.28;5011933;28;19963;-66
2022/12/30 06:24:31;;;;;;;;;;;;;;;-144.47;84.68;52991.16;5020152;28;20012;-70
2022/12/30 06:26:56;;;;;;;;;;;;;;;-144.47;84.83;52983.22;5018163;28;19971;-67
2022/12/30 06:29:21;;;;;;;;;;;;;;;-144.47;84.96;52981.22;5020129;28;20106;-69
2022/12/30 06:31:46;;;;;;;;;;;;;;;-144.47;84.39;52981.22;5018950;28;19913;-68
2022/12/30 06:34:12;;;;;;;;;;;;;;;-144.47;84.93;52977.25;5012701;28;19916;-68
2022/12/30 06:36:37;;;;;;;;;;;;;;;-144.47;85.64;53022.94;5011806;28;19909;-67
2022/12/30 06:39:02;;;;;;;;;;;;;;;-144.47;86.51;52997.09;5012789;28;20294;-68
2022/12/30 06:41:27;;;;;;;;;;;;;;;-144.47;87.00;52991.16;5013289;28;19917;-68
2022/12/30 06:43:53;;;;;;;;;;;;;;;-144.47;86.26;53003.06;5012357;28;19921;-69
2022/12/30 06:46:18;;;;;;;;;;;;;;;-144.47;86.08;53003.06;5011932;28;20286;-69
2022/12/30 06:48:43;;;;;;;;;;;;;;;-144.47;86.27;53007.03;5008339;28;19921;-72
2022/12/30 06:51:08;;;;;;;;;;;;;;;-144.47;86.24;52997.09;5009021;28;20355;-70
2022/12/30 06:53:34;;;;;;;;;;;;;;;-144.47;85.68;53020.94;5013436;28;19920;-65
2022/12/30 06:55:59;;;;;;;;;;;;;;;-144.47;85.47;52991.16;5013558;28;20387;-70
2022/12/30 06:58:24;;;;;;;;;;;;;;;-144.47;84.99;52977.25;5014406;28;20015;-71
2022/12/30 07:00:49;;;;;;;;;;;;;;;-144.47;85.10;52991.16;5016080;28;20406;-69
2022/12/30 07:03:15;;;;;;;;;;;;;;;-144.47;85.03;52999.09;4999334;28;19921;-68
2022/12/30 07:05:40;;;;;;;;;;;;;;;-144.47;85.81;52999.09;5018080;28;19909;-71
2022/12/30 07:08:05;;;;;;;;;;;;;;;-144.47;86.06;52995.13;5015961;28;20422;-67
2022/12/30 07:10:32;;;;;;;;;;;;;;;-144.47;87.09;53003.06;5013254;28;19909;-70
2022/12/30 07:12:57;;;;;;;;;;;;;;;-144.47;86.67;53024.91;5012205;28;19919;-69
2022/12/30 07:15:23;;;;;;;;;;;;;;;-144.47;86.82;53013.00;5008499;28;19910;-66
2022/12/30 07:17:48;;;;;;;;;;;;;;;-144.47;87.07;53016.97;5003756;28;20288;-69
2022/12/30 07:20:13;;;;;;;;;;;;;;;-144.47;87.24;53003.06;5003696;28;19917;-68
2022/12/30 07:22:39;;;;;;;;;;;;;;;-144.47;86.84;53003.06;5007869;28;20305;-69
2022/12/30 07:25:04;;;;;;;;;;;;;;;-144.47;86.38;52975.25;5011250;28;19909;-70
2022/12/30 07:27:30;;;;;;;;;;;;;;;-144.47;86.16;52979.22;5011476;28;19913;-70
2022/12/30 07:29:55;;;;;;;;;;;;;;;-144.47;86.22;52977.25;5007248;28;20414;-69
2022/12/30 07:32:20;;;;;;;;;;;;;;;-144.47;86.42;53005.06;5011544;28;19948;-70
2022/12/30 07:34:45;;;;;;;;;;;;;;;-144.47;87.20;53007.03;5011292;28;19928;-70
2022/12/30 07:37:10;;;;;;;;;;;;;;;-144.47;87.71;52995.13;5010552;28;19955;-69
2022/12/30 07:39:36;;;;;;;;;;;;;;;-144.47;87.71;52975.25;5011606;28;19992;-69
2022/12/30 07:42:01;;;;;;;;;;;;;;;-144.47;86.94;52957.38;5011609;28;20378;-69
2022/12/30 07:44:26;;;;;;;;;;;;;;;-144.47;86.85;52983.22;5011176;28;20033;-71
2022/12/30 07:46:52;;;;;;;;;;;;;;;-144.47;86.69;52967.31;5006160;28;19935;-66
2022/12/30 07:49:17;;;;;;;;;;;;;;;-144.47;86.63;52991.16;5009200;28;20004;-70
2022/12/30 07:51:42;;;;;;;;;;;;;;;-144.47;86.39;52997.09;5008434;28;19920;-69
2022/12/30 07:54:07;;;;;;;;;;;;;;;-144.47;86.40;53003.06;5010446;28;19977;-69
2022/12/30 07:56:33;;;;;;;;;;;;;;;-144.47;86.37;52975.25;5010275;28;19960;-70
2022/12/30 07:58:59;;;;;;;;;;;;;;;-144.47;86.70;52979.22;5009259;28;19909;-70
2022/12/30 08:01:24;;;;;;;;;;;;;;;-144.47;86.91;52989.16;5011214;28;19913;-68
2022/12/30 08:03:52;;;;;;;;;;;;;;;-144.47;87.01;52965.34;5008516;28;20415;-70
2022/12/30 08:06:18;;;;;;;;;;;;;;;-144.47;86.57;52997.09;5010352;28;19909;-69
2022/12/30 08:08:44;;;;;;;;;;;;;;;-144.47;86.47;52955.41;5010507;28;20383;-68
2022/12/30 08:11:10;;;;;;;;;;;;;;;-144.47;86.26;52983.22;4989612;28;19982;-71
2022/12/30 08:13:37;;;;;;;;;;;;;;;-144.47;86.44;53003.06;4999128;28;20453;-69
2022/12/30 08:16:04;;;;;;;;;;;;;;;-144.47;86.59;52983.22;4993345;28;19917;-69
2022/12/30 08:18:29;;;;;;;;;;;;;;;-144.47;86.38;52991.16;5005795;28;20041;-69
2022/12/30 08:20:57;;;;;;;;;;;;;;;-144.47;85.84;52977.25;5005497;28;19957;-68
2022/12/30 08:23:23;;;;;;;;;;;;;;;-144.47;85.47;52971.28;5010189;28;19913;-68
2022/12/30 08:25:48;;;;;;;;;;;;;;;-144.47;85.63;53011.00;5010660;28;20264;-70
2022/12/30 08:28:13;;;;;;;;;;;;;;;-144.47;85.24;52953.41;5007374;28;19983;-66
2022/12/30 08:30:39;;;;;;;;;;;;;;;-144.47;84.40;52973.28;5011173;28;19918;-69
2022/12/30 08:33:04;;;;;;;;;;;;;;;-144.47;83.74;52971.28;5010326;28;19956;-71
2022/12/30 08:35:29;;;;;;;;;;;;;;;-144.47;83.53;52967.31;4993187;28;20383;-69
2022/12/30 08:37:55;;;;;;;;;;;;;;;-144.47;83.37;52973.28;5009468;28;20151;-71
2022/12/30 08:40:20;;;;;;;;;;;;;;;-144.47;83.21;52969.31;5010566;28;19910;-67
2022/12/30 08:42:45;;;;;;;;;;;;;;;-144.47;82.90;52981.22;5007949;28;19975;-69
2022/12/30 08:45:10;;;;;;;;;;;;;;;-144.47;82.76;52981.22;4999474;28;20376;-67
2022/12/30 08:47:36;;;;;;;;;;;;;;;-144.47;82.29;52969.31;5002475;28;20015;-69
2022/12/30 08:50:01;;;;;;;;;;;;;;;-144.47;82.12;52959.38;5009091;28;19914;-69
2022/12/30 08:52:27;;;;;;;;;;;;;;;-144.47;82.02;52953.41;5010052;28;19916;-69
2022/12/30 08:54:52;;;;;;;;;;;;;;;-144.47;82.13;52963.34;5010444;28;19920;-66
2022/12/30 08:57:17;;;;;;;;;;;;;;;-144.47;81.69;52983.22;5008355;28;19916;-69
2022/12/30 08:59:43;;;;;;;;;;;;;;;-144.47;82.17;52947.47;5009447;28;20390;-69
2022/12/30 09:02:12;;;;;;;;;;;;;;;-144.47;81.89;52959.38;5009219;28;19913;-69
2022/12/30 09:04:37;;;;;;;;;;;;;;;-144.47;81.85;52989.16;4991654;28;20027;-70
2022/12/30 09:07:02;;;;;;;;;;;;;;;-144.47;81.48;52971.28;5000534;28;20430;-68
2022/12/30 09:09:28;;;;;;;;;;;;;;;-144.47;81.48;52959.38;5008349;28;19921;-70
2022/12/30 09:11:53;;;;;;;;;;;;;;;-144.47;80.91;52951.44;5011124;28;19913;-69
2022/12/30 09:14:19;;;;;;;;;;;;;;;-144.47;80.16;52953.41;5010755;28;19913;-68
2022/12/30 09:16:44;;;;;;;;;;;;;;;-144.47;79.81;52915.69;5007510;28;19964;-70
2022/12/30 09:19:09;;;;;;;;;;;;;;;-144.47;78.94;52991.16;5008399;28;19917;-68
2022/12/30 09:21:34;;;;;;;;;;;;;;;-144.47;78.79;52951.44;5005081;28;20391;-69
2022/12/30 09:24:00;;;;;;;;;;;;;;;-144.47;78.44;52931.56;5005712;28;19909;-70
2022/12/30 09:26:26;;;;;;;;;;;;;;;-144.47;78.41;52951.44;4999281;28;19921;-70
2022/12/30 09:28:52;;;;;;;;;;;;;;;-144.47;78.13;52923.63;5004164;28;19968;-68
2022/12/30 09:31:17;;;;;;;;;;;;;;;-144.47;82.59;52905.75;5015822;28;20402;-70
2022/12/30 09:33:43;;;;;;;;;;;;;;;-144.47;79.63;52913.69;5014065;28;19916;-68
2022/12/30 09:36:08;;;;;;;;;;;;;;;-144.47;77.58;52925.59;5028629;28;19932;-68
2022/12/30 09:38:34;;;;;;;;;;;;;;;-144.47;77.01;52921.63;5020195;28;19975;-69
2022/12/30 09:41:02;;;;;;;;;;;;;;;-144.47;76.48;52951.44;5001261;28;20367;-70
2022/12/30 09:43:27;;;;;;;;;;;;;;;-144.47;76.45;52931.56;5012437;28;19913;-69
2022/12/30 09:46:02;;;;;;;;;;;;;;;-144.47;76.40;52919.66;5009705;28;19924;-68
2022/12/30 09:48:31;;;;;;;;;;;;;;;-144.47;75.97;52899.78;5010133;28;19921;-69
2022/12/30 09:50:59;;;;;;;;;;;;;;;-144.47;76.03;52931.56;4990795;28;19917;-70
2022/12/30 09:53:36;;;;;;;;;;;;;;;-144.47;76.18;52963.34;5013283;28;19967;-69
2022/12/30 09:56:08;;;;;;;;;;;;;;;-144.47;76.13;52925.59;5007673;28;19960;-67
2022/12/30 09:58:34;;;;;;;;;;;;;;;-144.47;75.73;52915.69;5010596;28;20361;-67
2022/12/30 10:01:07;;;;;;;;;;;;;;;-144.47;74.86;52913.69;5004134;28;19910;-69
2022/12/30 10:03:32;;;;;;;;;;;;;;;-144.47;75.10;52929.59;5025608;22;20024;-70
2022/12/30 10:06:16;;;;;;;;;;;;;;;-144.47;74.91;52941.50;5008320;28;20371;-67
2022/12/30 10:08:48;;;;;;;;;;;;;;;-144.47;74.73;52933.56;5001207;28;20008;-67
2022/12/30 10:11:28;;;;;;;;;;;;;;;-144.47;75.03;52887.88;4998833;28;19967;-69
2022/12/30 10:13:56;;;;;;;;;;;;;;;-144.47;75.19;52949.44;5000162;28;20477;-70
2022/12/30 10:16:37;;;;;;;;;;;;;;;-144.47;74.96;52927.59;5002864;28;19919;-67
2022/12/30 10:19:15;;;;;;;;;;;;;;;-144.47;74.82;52925.59;5007491;28;19925;-67
2022/12/30 10:21:47;;;;;;;;;;;;;;;-144.47;75.28;52913.69;5007407;28;20404;-70
2022/12/30 10:24:12;;;;;;;;;;;;;;;-144.47;74.23;52897.81;5009284;28;19989;-70
2022/12/30 10:26:38;;;;;;;;;;;;;;;-144.47;74.20;52905.75;4992566;28;19978;-71
2022/12/30 10:29:04;;;;;;;;;;;;;;;-144.47;74.40;52905.75;5010913;28;19953;-67
2022/12/30 10:31:32;;;;;;;;;;;;;;;-144.47;73.69;52883.91;5010809;28;20012;-69
2022/12/30 10:34:16;;;;;;;;;;;;;;;-144.47;73.72;52915.69;5009761;28;19916;-66
2022/12/30 10:37:08;;;;;;;;;;;;;;;-144.47;72.59;52911.69;5008409;28;19972;-69
2022/12/30 10:39:40;;;;;;;;;;;;;;;-144.47;72.20;52925.59;4998065;28;19921;-68
2022/12/30 10:42:28;;;;;;;;;;;;;;;-144.47;71.99;52917.66;5011786;28;20383;-70
2022/12/30 10:45:02;;;;;;;;;;;;;;;-144.47;72.19;52927.59;5010168;28;19957;-66
2022/12/30 10:47:30;;;;;;;;;;;;;;;-144.47;71.92;52909.72;4991175;28;20328;-67
2022/12/30 10:50:15;;;;;;;;;;;;;;;-144.47;71.49;52899.78;5011018;28;19977;-68
2022/12/30 10:52:41;;;;;;;;;;;;;;;-144.47;71.48;52871.97;5010180;28;19913;-70
2022/12/30 10:55:17;;;;;;;;;;;;;;;-144.47;71.15;52899.78;5012031;28;19916;-71
2022/12/30 10:57:42;;;;;;;;;;;;;;;-144.47;71.11;52911.69;5011789;28;19961;-69
2022/12/30 11:00:08;;;;;;;;;;;;;;;-144.47;70.90;52895.81;5008655;28;20007;-67
2022/12/30 11:02:37;;;;;;;;;;;;;;;-144.47;70.29;52905.75;5007969;28;20278;-70
2022/12/30 11:05:02;;;;;;;;;;;;;;;-144.47;70.02;52879.94;5012202;28;19922;-70
2022/12/30 11:07:28;;;;;;;;;;;;;;;-144.47;69.03;52893.81;5011149;28;19921;-67
2022/12/30 11:09:53;;;;;;;;;;;;;;;-144.47;68.72;52911.69;4993348;28;19925;-71
2022/12/30 11:15:08;;;;;;;;;;;;;;;-144.47;68.20;52895.81;5009615;28;19993;-70
2022/12/30 11:17:48;;;;;;;;;;;;;;;-144.47;67.97;52875.94;5003575;28;20331;-68
2022/12/30 11:20:13;;;;;;;;;;;;;;;-144.47;68.62;52881.91;5003689;28;19917;-67
2022/12/30 11:22:48;;;;;;;;;;;;;;;-144.47;68.62;52883.91;5002275;28;20251;-68
2022/12/30 11:25:13;;;;;;;;;;;;;;;-144.47;68.50;52868.00;5007349;28;19913;-69
2022/12/30 11:27:42;;;;;;;;;;;;;;;-144.47;68.08;52870.00;4995481;28;19931;-71
2022/12/30 11:30:21;;;;;;;;;;;;;;;-144.47;68.35;52868.00;5009258;28;19917;-68
2022/12/30 11:32:46;;;;;;;;;;;;;;;-144.47;68.09;52901.78;5001583;28;19914;-67
2022/12/30 11:35:30;;;;;;;;;;;;;;;-144.47;68.10;52907.72;5007450;28;19988;-70
2022/12/30 11:37:55;;;;;;;;;;;;;;;-144.47;68.17;52881.91;4999810;28;19913;-69
2022/12/30 11:40:23;;;;;;;;;;;;;;;-144.47;68.20;52871.97;5008423;28;20013;-68
2022/12/30 11:43:03;;;;;;;;;;;;;;;-144.47;67.83;52864.03;5001619;28;19964;-67
2022/12/30 11:45:28;;;;;;;;;;;;;;;-144.47;67.82;52879.94;5009222;28;19916;-69
2022/12/30 11:47:53;;;;;;;;;;;;;;;-144.47;67.83;52901.78;5003018;28;19913;-68
2022/12/30 11:50:19;;;;;;;;;;;;;;;-144.47;67.07;52868.00;5001765;28;19917;-69
2022/12/30 11:52:51;;;;;;;;;;;;;;;-144.47;67.43;52887.88;5004383;28;19913;-67
2022/12/30 11:55:18;;;;;;;;;;;;;;;-144.47;66.87;52864.03;5008624;28;19997;-69
2022/12/30 11:57:47;;;;;;;;;;;;;;;-144.47;66.11;52860.06;5005458;28;20295;-67
2022/12/30 12:00:12;;;;;;;;;;;;;;;-144.47;66.05;52864.03;5007185;28;19929;-69
2022/12/30 12:02:39;;;;;;;;;;;;;;;-144.47;64.61;52875.94;5009177;28;20004;-71
2022/12/30 12:05:24;;;;;;;;;;;;;;;-144.47;64.89;52891.84;5006963;28;19967;-67
2022/12/30 12:07:51;;;;;;;;;;;;;;;-144.47;64.41;52883.91;4992382;28;19913;-70
2022/12/30 12:12:13;;;;;;;7.30;1.33;;;;;;;-144.47;63.80;52856.09;5060166;28;20394;-69
2022/12/30 12:15:05;;;;;;;6.32;1.33;;;;;;;-144.47;63.37;52871.97;5054855;28;20083;-72
2022/12/30 12:17:44;;;;;;;8.38;2.10;;;;;;;-144.47;63.00;52862.06;5055448;28;20041;-69
2022/12/30 12:20:42;;;;;;;10.30;2.50;;;;;;;-144.47;62.60;52891.84;5054130;28;20023;-71
2022/12/30 12:23:16;;;;;;;9.95;1.80;;;;;;;-144.47;62.56;52883.91;5057748;28;20104;-70
2022/12/30 12:26:07;;;;;;;13.60;3.47;;;;;;;-144.47;63.15;52873.97;5051331;28;20033;-68
2022/12/30 12:28:37;;;;;;;16.83;4.22;;;;;;;-144.47;63.28;52875.94;5051065;28;20028;-68
2022/12/30 12:31:37;;;;;;;12.30;3.58;;;;;;;-144.47;63.75;52887.88;5053689;28;20028;-71
2022/12/30 12:34:17;;;;;;;12.60;2.03;;;;;;;-144.47;63.67;52868.00;5062186;28;20368;-67
2022/12/30 12:37:07;;;;;;;20.83;3.72;;;;;;;-144.47;63.48;52887.88;5062812;28;20100;-67
2022/12/30 12:40:06;;;;;;;23.88;4.82;;;;;;;-144.47;63.65;52844.19;5054098;28;20045;-70
2022/12/30 12:42:53;;;;;;;9.90;3.25;;;;;;;-144.47;63.89;52875.94;5049266;28;20098;-67
2022/12/30 12:45:31;;;;;;;17.77;4.18;;;;;;;-144.47;63.67;52870.00;5054557;28;20100;-71
2022/12/30 12:48:23;;;;;;;22.10;3.92;;;;;;;-144.47;63.56;52850.13;5045975;28;20382;-69
2022/12/30 12:51:07;;;;;;;29.45;4.82;;;;;;;-144.47;63.86;52868.00;5053985;28;20124;-67
2022/12/30 12:53:44;;;;;;;25.35;5.55;;;;;;;-144.47;64.18;52875.94;5051769;28;20531;-68
2022/12/30 12:56:41;;;;;;;35.80;7.22;;;;;;;-144.47;64.34;52868.00;5052520;28;20063;-71
2022/12/30 12:59:23;;;;;;;35.35;6.82;;;;;;;-144.47;64.84;52883.91;5053300;28;20036;-67
2022/12/30 13:02:04;;;;;;;15.93;4.78;;;;;;;-144.47;65.44;52860.06;5056637;28;20029;-69
2022/12/30 13:05:07;;;;;;;17.30;4.45;;;;;;;-144.47;64.65;52866.03;5042978;28;20029;-67
2022/12/30 13:08:04;;;;;;;31.95;7.22;;;;;;;-144.47;64.85;52885.88;5046788;28;20027;-69
2022/12/30 13:10:42;;;;;;;16.27;3.95;;;;;;;-144.47;64.85;52868.00;5048907;28;20100;-67
2022/12/30 13:13:18;;;;;;;25.58;5.75;;;;;;;-144.47;65.05;52881.91;5051029;28;20052;-68
2022/12/30 13:15:52;;;;;;;30.10;6.03;;;;;;;-144.47;65.31;52862.06;5056681;28;20496;-66
2022/12/30 13:18:23;;;;;;;20.58;4.97;;;;;;;-144.47;65.22;52889.84;5054119;28;20025;-71
2022/12/30 13:20:52;;;;;;;25.95;5.53;;;;;;;-144.47;65.26;52832.25;5055673;28;20021;-70
2022/12/30 13:23:24;;;;;;;29.15;6.57;;;;;;;-144.47;65.51;52891.84;5035697;28;20032;-70
2022/12/30 13:25:58;;;;;;;12.02;3.00;;;;;;;-144.47;65.44;52879.94;5030494;28;20029;-70